createdAt,value
2022-09-18T00:07:46.505Z,100228.31
2022-09-18T00:17:51.480Z,100234.91
2022-09-18T00:27:56.189Z,100224.19
2022-09-18T00:38:01.114Z,100237.59
2022-09-18T00:48:05.532Z,100232.28
2022-09-18T00:58:12.694Z,100222.50
2022-09-18T01:08:31.572Z,100228.81
2022-09-18T01:18:46.784Z,100234.91
2022-09-18T01:28:58.793Z,100234.22
2022-09-18T01:39:08.099Z,100243.09
2022-09-18T01:49:17.354Z,100229.25
2022-09-18T01:59:25.554Z,100242.25
2022-09-18T02:09:36.728Z,100250.97
2022-09-18T02:19:45.470Z,100247.31
2022-09-18T02:29:51.234Z,100233.88
2022-09-18T02:40:43.664Z,100237.28
2022-09-18T02:50:59.090Z,100229.78
2022-09-18T03:01:06.671Z,100225.28
2022-09-18T03:11:13.280Z,100207.56
2022-09-18T03:21:16.901Z,100210.31
2022-09-18T03:31:21.981Z,100210.00
2022-09-18T03:41:25.701Z,100211.03
2022-09-18T03:51:30.827Z,100199.91
2022-09-18T04:01:35.729Z,100203.47
2022-09-18T04:11:40.826Z,100202.63
2022-09-18T04:21:44.782Z,100198.72
2022-09-18T04:31:50.013Z,100199.03
2022-09-18T04:41:57.983Z,100207.38
2022-09-18T04:52:05.954Z,100217.19
2022-09-18T05:02:12.282Z,100203.03
2022-09-18T05:12:17.292Z,100198.19
2022-09-18T05:22:20.871Z,100200.13
2022-09-18T05:32:26.859Z,100211.41
2022-09-18T05:42:30.507Z,100200.97
2022-09-18T05:52:35.658Z,100197.44
2022-09-18T06:02:39.265Z,100199.81
2022-09-18T06:12:44.562Z,100206.38
2022-09-18T06:22:48.239Z,100211.06
2022-09-18T06:33:03.278Z,100214.22
2022-09-18T06:43:10.698Z,100211.69
2022-09-18T06:53:15.679Z,100212.59
2022-09-18T07:03:20.335Z,100228.75
2022-09-18T07:13:25.365Z,100222.00
2022-09-18T07:23:33.022Z,100236.06
2022-09-18T07:33:38.182Z,100229.53
2022-09-18T07:43:41.913Z,100238.88
2022-09-18T07:53:50.444Z,100243.41
2022-09-18T08:03:54.046Z,100249.75
2022-09-18T08:13:59.113Z,100268.47
2022-09-18T08:24:03.616Z,100266.84
2022-09-18T08:34:10.118Z,100260.13
2022-09-18T08:44:18.035Z,100247.97
2022-09-18T08:54:36.079Z,100244.31
2022-09-18T09:04:39.903Z,100247.59
2022-09-18T09:15:12.092Z,100225.91
2022-09-18T09:25:23.716Z,100227.19
2022-09-18T09:35:33.597Z,100212.41
2022-09-18T09:45:46.215Z,100215.66
2022-09-18T09:56:03.914Z,100199.47
2022-09-18T10:06:24.574Z,100218.84
2022-09-18T10:16:35.796Z,100220.06
2022-09-18T10:26:46.011Z,100194.06
2022-09-18T10:36:50.990Z,100182.66
2022-09-18T10:47:05.094Z,100180.13
2022-09-18T11:07:48.229Z,100180.50
2022-09-18T11:17:55.368Z,100181.22
2022-09-18T11:28:03.645Z,100162.81
2022-09-18T11:38:12.066Z,100167.09
2022-09-18T11:48:29.556Z,100144.59
2022-09-18T11:58:41.420Z,100134.31
2022-09-18T12:08:54.055Z,100144.56
2022-09-18T12:19:04.706Z,100131.41
2022-09-18T12:29:33.323Z,100115.72
2022-09-18T12:40:04.499Z,100108.34
2022-09-18T12:50:32.519Z,100113.41
2022-09-18T13:00:39.960Z,100097.34
2022-09-18T13:10:49.836Z,100083.72
2022-09-18T13:20:58.425Z,100082.84
2022-09-18T13:31:26.368Z,100092.47
2022-09-18T13:41:42.304Z,100105.53
2022-09-18T13:51:47.681Z,100093.59
2022-09-18T14:02:02.841Z,100095.09
2022-09-18T14:12:14.528Z,100089.66
2022-09-18T14:22:25.714Z,100095.13
2022-09-18T14:32:31.621Z,100072.84
2022-09-18T14:42:41.184Z,100075.50
2022-09-18T14:52:49.237Z,100076.47
2022-09-18T15:02:56.451Z,100066.97
2022-09-18T15:13:07.028Z,100059.47
2022-09-18T15:23:30.253Z,100054.59
2022-09-18T15:33:40.549Z,100054.53
2022-09-18T15:43:51.363Z,100033.72
2022-09-18T15:54:31.237Z,100046.94
2022-09-18T16:04:43.773Z,100053.25
2022-09-18T16:15:01.912Z,100051.81
2022-09-18T16:25:17.627Z,100046.28
2022-09-18T16:35:22.664Z,100049.22
2022-09-18T16:45:28.694Z,100045.59
2022-09-18T16:55:45.686Z,100040.16
2022-09-18T17:05:49.410Z,100041.94
2022-09-18T17:16:00.097Z,100040.56
2022-09-18T17:26:08.932Z,100063.84
2022-09-18T17:36:18.086Z,100065.56
2022-09-18T17:46:22.183Z,100069.63
2022-09-18T17:56:29.858Z,100064.13
2022-09-18T18:06:33.815Z,100054.59
2022-09-18T18:16:41.142Z,100061.53
2022-09-18T18:26:48.080Z,100062.50
2022-09-18T18:36:54.719Z,100082.50
2022-09-18T18:46:59.106Z,100118.34
2022-09-18T18:57:08.148Z,100139.88
2022-09-18T19:07:11.953Z,100153.72
2022-09-18T19:17:17.265Z,100177.75
2022-09-18T19:27:20.944Z,100179.63
2022-09-18T19:37:26.053Z,100181.81
2022-09-18T19:47:36.117Z,100186.13
2022-09-18T19:57:42.026Z,100189.50
2022-09-18T20:07:46.009Z,100206.72
2022-09-18T20:17:55.579Z,100193.34
2022-09-18T20:27:59.330Z,100204.19
2022-09-18T20:38:05.437Z,100171.34
2022-09-18T20:48:12.838Z,100177.16
2022-09-18T20:58:19.714Z,100181.56
2022-09-18T21:08:25.163Z,100179.22
2022-09-18T21:18:30.142Z,100190.03
2022-09-18T21:28:33.744Z,100180.25
2022-09-18T21:38:39.935Z,100181.03
2022-09-18T21:48:44.208Z,100187.63
2022-09-18T21:58:49.827Z,100192.41
2022-09-18T22:08:57.413Z,100220.44
2022-09-18T22:19:02.890Z,100222.59
2022-09-18T22:29:08.428Z,100210.19
2022-09-18T22:39:14.855Z,100212.66
2022-09-18T22:49:20.003Z,100221.91
2022-09-18T22:59:27.024Z,100226.81
2022-09-18T23:09:31.338Z,100242.44
2022-09-18T23:19:36.609Z,100244.06
2022-09-18T23:29:41.083Z,100250.25
2022-09-18T23:39:46.008Z,100253.22
2022-09-18T23:49:49.666Z,100237.72
2022-09-18T23:59:58.511Z,100243.25
